sensor_id;sensor_type;location;lat;lon;timestamp;temperature;humidity
21261;DHT22;10788;47.930;9.766;2022-10-22T00:00:32;12.80;99.90
21261;DHT22;10788;47.930;9.766;2022-10-22T00:02:58;12.70;99.90
21261;DHT22;10788;47.930;9.766;2022-10-22T00:05:24;12.70;99.90
21261;DHT22;10788;47.930;9.766;2022-10-22T00:07:49;12.70;99.90
21261;DHT22;10788;47.930;9.766;2022-10-22T00:10:15;12.60;99.90
21261;DHT22;10788;47.930;9.766;2022-10-22T00:12:42;12.60;99.90
21261;DHT22;10788;47.930;9.766;2022-10-22T00:15:07;12.60;99.90
21261;DHT22;10788;47.930;9.766;2022-10-22T00:17:34;12.60;99.90
21261;DHT22;10788;47.930;9.766;2022-10-22T00:20:00;12.60;99.90
21261;DHT22;10788;47.930;9.766;2022-10-22T00:22:26;12.50;99.90
21261;DHT22;10788;47.930;9.766;2022-10-22T00:24:51;12.40;99.90
21261;DHT22;10788;47.930;9.766;2022-10-22T00:27:17;12.40;99.90
21261;DHT22;10788;47.930;9.766;2022-10-22T00:29:42;12.40;99.90
21261;DHT22;10788;47.930;9.766;2022-10-22T00:32:08;12.40;99.90
21261;DHT22;10788;47.930;9.766;2022-10-22T00:34:34;12.40;99.90
21261;DHT22;10788;47.930;9.766;2022-10-22T00:36:59;12.40;99.90
21261;DHT22;10788;47.930;9.766;2022-10-22T00:39:27;12.50;99.90
21261;DHT22;10788;47.930;9.766;2022-10-22T00:41:55;12.30;99.90
21261;DHT22;10788;47.930;9.766;2022-10-22T00:50:22;12.30;99.90
21261;DHT22;10788;47.930;9.766;2022-10-22T00:52:49;12.20;99.90
21261;DHT22;10788;47.930;9.766;2022-10-22T00:55:15;12.20;99.90
21261;DHT22;10788;47.930;9.766;2022-10-22T00:57:41;12.20;99.90
21261;DHT22;10788;47.930;9.766;2022-10-22T01:00:08;12.10;99.90
21261;DHT22;10788;47.930;9.766;2022-10-22T01:02:34;12.10;99.90
21261;DHT22;10788;47.930;9.766;2022-10-22T01:05:00;12.10;99.90
21261;DHT22;10788;47.930;9.766;2022-10-22T01:07:25;12.10;99.90
21261;DHT22;10788;47.930;9.766;2022-10-22T01:12:45;12.10;99.90
21261;DHT22;10788;47.930;9.766;2022-10-22T01:18:08;12.10;99.90
21261;DHT22;10788;47.930;9.766;2022-10-22T01:20:46;12.00;99.90
21261;DHT22;10788;47.930;9.766;2022-10-22T01:26:03;12.00;99.90
21261;DHT22;10788;47.930;9.766;2022-10-22T01:29:36;12.10;99.90
21261;DHT22;10788;47.930;9.766;2022-10-22T01:31:59;12.00;99.90
21261;DHT22;10788;47.930;9.766;2022-10-22T01:34:27;12.00;99.90
21261;DHT22;10788;47.930;9.766;2022-10-22T01:36:54;12.10;99.90
21261;DHT22;10788;47.930;9.766;2022-10-22T01:39:22;12.00;99.90
21261;DHT22;10788;47.930;9.766;2022-10-22T01:41:48;12.20;99.90
21261;DHT22;10788;47.930;9.766;2022-10-22T01:44:34;12.00;99.90
21261;DHT22;10788;47.930;9.766;2022-10-22T01:50:01;12.00;99.90
21261;DHT22;10788;47.930;9.766;2022-10-22T02:01:04;11.90;99.90
21261;DHT22;10788;47.930;9.766;2022-10-22T02:06:25;11.80;99.90
21261;DHT22;10788;47.930;9.766;2022-10-22T02:08:53;11.90;99.90
21261;DHT22;10788;47.930;9.766;2022-10-22T02:11:20;11.80;99.90
21261;DHT22;10788;47.930;9.766;2022-10-22T02:13:51;11.80;99.90
21261;DHT22;10788;47.930;9.766;2022-10-22T02:16:24;11.80;99.90
21261;DHT22;10788;47.930;9.766;2022-10-22T02:18:53;11.70;99.90
21261;DHT22;10788;47.930;9.766;2022-10-22T02:21:20;11.80;99.90
21261;DHT22;10788;47.930;9.766;2022-10-22T02:23:46;11.60;99.90
21261;DHT22;10788;47.930;9.766;2022-10-22T02:26:38;11.70;99.90
21261;DHT22;10788;47.930;9.766;2022-10-22T02:29:11;11.70;99.90
21261;DHT22;10788;47.930;9.766;2022-10-22T02:31:40;11.70;99.90
21261;DHT22;10788;47.930;9.766;2022-10-22T02:34:10;11.60;99.90
21261;DHT22;10788;47.930;9.766;2022-10-22T02:36:37;11.60;99.90
21261;DHT22;10788;47.930;9.766;2022-10-22T02:39:04;11.60;99.90
21261;DHT22;10788;47.930;9.766;2022-10-22T02:41:31;11.60;99.90
21261;DHT22;10788;47.930;9.766;2022-10-22T02:43:56;11.60;99.90
21261;DHT22;10788;47.930;9.766;2022-10-22T02:46:22;11.40;99.90
21261;DHT22;10788;47.930;9.766;2022-10-22T02:48:48;11.60;99.90
21261;DHT22;10788;47.930;9.766;2022-10-22T02:51:14;11.50;99.90
21261;DHT22;10788;47.930;9.766;2022-10-22T02:53:40;11.40;99.90
21261;DHT22;10788;47.930;9.766;2022-10-22T02:56:06;11.50;99.90
21261;DHT22;10788;47.930;9.766;2022-10-22T02:58:32;11.50;99.90
21261;DHT22;10788;47.930;9.766;2022-10-22T03:00:57;11.50;99.90
21261;DHT22;10788;47.930;9.766;2022-10-22T03:03:23;11.50;99.90
21261;DHT22;10788;47.930;9.766;2022-10-22T03:05:51;11.50;99.90
21261;DHT22;10788;47.930;9.766;2022-10-22T03:08:17;11.50;99.90
21261;DHT22;10788;47.930;9.766;2022-10-22T03:10:43;11.40;99.90
21261;DHT22;10788;47.930;9.766;2022-10-22T03:13:08;11.50;99.90
21261;DHT22;10788;47.930;9.766;2022-10-22T03:15:34;11.40;99.90
21261;DHT22;10788;47.930;9.766;2022-10-22T03:18:00;11.40;99.90
21261;DHT22;10788;47.930;9.766;2022-10-22T03:20:25;11.40;99.90
21261;DHT22;10788;47.930;9.766;2022-10-22T03:22:51;11.30;99.90
21261;DHT22;10788;47.930;9.766;2022-10-22T03:25:20;11.30;99.90
21261;DHT22;10788;47.930;9.766;2022-10-22T03:27:48;11.30;99.90
21261;DHT22;10788;47.930;9.766;2022-10-22T03:30:14;11.30;99.90
21261;DHT22;10788;47.930;9.766;2022-10-22T03:32:40;11.20;99.90
21261;DHT22;10788;47.930;9.766;2022-10-22T03:35:06;11.30;99.90
21261;DHT22;10788;47.930;9.766;2022-10-22T03:37:32;11.30;99.90
21261;DHT22;10788;47.930;9.766;2022-10-22T03:39:58;11.20;99.90
21261;DHT22;10788;47.930;9.766;2022-10-22T03:42:24;11.30;99.90
21261;DHT22;10788;47.930;9.766;2022-10-22T03:44:50;11.40;99.90
21261;DHT22;10788;47.930;9.766;2022-10-22T03:47:16;11.20;99.90
21261;DHT22;10788;47.930;9.766;2022-10-22T03:49:41;11.40;99.90
21261;DHT22;10788;47.930;9.766;2022-10-22T03:52:09;11.20;99.90
21261;DHT22;10788;47.930;9.766;2022-10-22T03:54:35;11.20;99.90
21261;DHT22;10788;47.930;9.766;2022-10-22T03:57:02;11.20;99.90
21261;DHT22;10788;47.930;9.766;2022-10-22T03:59:28;11.30;99.90
21261;DHT22;10788;47.930;9.766;2022-10-22T04:01:53;11.30;99.90
21261;DHT22;10788;47.930;9.766;2022-10-22T04:04:19;11.30;99.90
21261;DHT22;10788;47.930;9.766;2022-10-22T04:06:45;11.30;99.90
21261;DHT22;10788;47.930;9.766;2022-10-22T04:09:10;11.20;99.90
21261;DHT22;10788;47.930;9.766;2022-10-22T04:11:36;11.30;99.90
21261;DHT22;10788;47.930;9.766;2022-10-22T04:14:01;11.30;99.90
21261;DHT22;10788;47.930;9.766;2022-10-22T04:16:27;11.30;99.90
21261;DHT22;10788;47.930;9.766;2022-10-22T04:18:57;11.30;99.90
21261;DHT22;10788;47.930;9.766;2022-10-22T04:21:23;11.40;99.90
21261;DHT22;10788;47.930;9.766;2022-10-22T04:23:51;11.30;99.90
21261;DHT22;10788;47.930;9.766;2022-10-22T04:26:18;11.30;99.90
21261;DHT22;10788;47.930;9.766;2022-10-22T04:28:46;11.30;99.90
21261;DHT22;10788;47.930;9.766;2022-10-22T04:31:14;11.20;99.90
21261;DHT22;10788;47.930;9.766;2022-10-22T04:33:40;11.20;99.90
21261;DHT22;10788;47.930;9.766;2022-10-22T04:36:07;11.20;99.90
21261;DHT22;10788;47.930;9.766;2022-10-22T04:38:33;11.20;99.90
21261;DHT22;10788;47.930;9.766;2022-10-22T04:41:14;11.30;99.90
21261;DHT22;10788;47.930;9.766;2022-10-22T04:43:41;11.20;99.90
21261;DHT22;10788;47.930;9.766;2022-10-22T04:46:08;11.30;99.90
21261;DHT22;10788;47.930;9.766;2022-10-22T04:48:35;11.30;99.90
21261;DHT22;10788;47.930;9.766;2022-10-22T04:51:01;11.20;99.90
21261;DHT22;10788;47.930;9.766;2022-10-22T04:53:27;11.10;99.90
21261;DHT22;10788;47.930;9.766;2022-10-22T04:55:53;11.20;99.90
21261;DHT22;10788;47.930;9.766;2022-10-22T04:58:19;11.20;99.90
21261;DHT22;10788;47.930;9.766;2022-10-22T05:00:44;11.20;99.90
21261;DHT22;10788;47.930;9.766;2022-10-22T05:03:10;11.30;99.90
21261;DHT22;10788;47.930;9.766;2022-10-22T05:05:35;11.30;99.90
21261;DHT22;10788;47.930;9.766;2022-10-22T05:08:01;11.20;99.90
21261;DHT22;10788;47.930;9.766;2022-10-22T05:10:27;11.20;99.90
21261;DHT22;10788;47.930;9.766;2022-10-22T05:12:52;11.30;99.90
21261;DHT22;10788;47.930;9.766;2022-10-22T05:15:18;11.20;99.90
21261;DHT22;10788;47.930;9.766;2022-10-22T05:17:43;11.10;99.90
21261;DHT22;10788;47.930;9.766;2022-10-22T05:20:09;11.20;99.90
21261;DHT22;10788;47.930;9.766;2022-10-22T05:22:35;11.20;99.90
21261;DHT22;10788;47.930;9.766;2022-10-22T05:25:00;11.30;99.90
21261;DHT22;10788;47.930;9.766;2022-10-22T05:27:26;11.30;99.90
21261;DHT22;10788;47.930;9.766;2022-10-22T05:29:52;11.30;99.90
21261;DHT22;10788;47.930;9.766;2022-10-22T05:32:17;11.30;99.90
21261;DHT22;10788;47.930;9.766;2022-10-22T05:34:43;11.30;99.90
21261;DHT22;10788;47.930;9.766;2022-10-22T05:37:08;11.20;99.90
21261;DHT22;10788;47.930;9.766;2022-10-22T05:39:34;11.20;99.90
21261;DHT22;10788;47.930;9.766;2022-10-22T05:42:02;11.30;99.90
21261;DHT22;10788;47.930;9.766;2022-10-22T05:44:27;11.40;99.90
21261;DHT22;10788;47.930;9.766;2022-10-22T05:46:53;11.20;99.90
21261;DHT22;10788;47.930;9.766;2022-10-22T05:49:19;11.30;99.90
21261;DHT22;10788;47.930;9.766;2022-10-22T05:51:44;11.20;99.90
21261;DHT22;10788;47.930;9.766;2022-10-22T05:54:16;11.30;99.90
21261;DHT22;10788;47.930;9.766;2022-10-22T05:56:42;11.20;99.90
21261;DHT22;10788;47.930;9.766;2022-10-22T05:59:10;11.20;99.90
21261;DHT22;10788;47.930;9.766;2022-10-22T06:01:35;11.30;99.90
21261;DHT22;10788;47.930;9.766;2022-10-22T06:04:05;11.30;99.90
21261;DHT22;10788;47.930;9.766;2022-10-22T06:11:35;11.40;99.90
21261;DHT22;10788;47.930;9.766;2022-10-22T06:14:02;11.40;99.90
21261;DHT22;10788;47.930;9.766;2022-10-22T06:16:29;11.40;99.90
21261;DHT22;10788;47.930;9.766;2022-10-22T06:18:55;11.30;99.90
21261;DHT22;10788;47.930;9.766;2022-10-22T06:21:20;11.40;99.90
21261;DHT22;10788;47.930;9.766;2022-10-22T06:23:46;11.50;99.90
21261;DHT22;10788;47.930;9.766;2022-10-22T06:26:11;11.40;99.90
21261;DHT22;10788;47.930;9.766;2022-10-22T06:28:37;11.40;99.90
21261;DHT22;10788;47.930;9.766;2022-10-22T06:31:04;11.50;99.90
21261;DHT22;10788;47.930;9.766;2022-10-22T06:33:31;11.50;99.90
21261;DHT22;10788;47.930;9.766;2022-10-22T06:36:09;11.50;99.90
21261;DHT22;10788;47.930;9.766;2022-10-22T06:38:34;11.50;99.90
21261;DHT22;10788;47.930;9.766;2022-10-22T06:41:06;11.50;99.90
21261;DHT22;10788;47.930;9.766;2022-10-22T06:43:31;11.50;99.90
21261;DHT22;10788;47.930;9.766;2022-10-22T06:46:02;11.60;99.90
21261;DHT22;10788;47.930;9.766;2022-10-22T06:48:28;11.60;99.90
21261;DHT22;10788;47.930;9.766;2022-10-22T06:50:54;11.70;99.90
21261;DHT22;10788;47.930;9.766;2022-10-22T06:53:20;11.80;99.90
21261;DHT22;10788;47.930;9.766;2022-10-22T06:55:45;11.70;99.90
21261;DHT22;10788;47.930;9.766;2022-10-22T06:58:11;11.70;99.90
21261;DHT22;10788;47.930;9.766;2022-10-22T07:00:37;11.70;99.90
21261;DHT22;10788;47.930;9.766;2022-10-22T07:03:02;11.70;99.90
21261;DHT22;10788;47.930;9.766;2022-10-22T07:05:28;11.70;99.90
21261;DHT22;10788;47.930;9.766;2022-10-22T07:07:53;11.70;99.90
21261;DHT22;10788;47.930;9.766;2022-10-22T07:10:19;11.70;99.90
21261;DHT22;10788;47.930;9.766;2022-10-22T07:12:45;11.80;99.90
21261;DHT22;10788;47.930;9.766;2022-10-22T07:15:10;11.80;99.90
21261;DHT22;10788;47.930;9.766;2022-10-22T07:17:36;11.80;99.90
21261;DHT22;10788;47.930;9.766;2022-10-22T07:20:02;11.80;99.90
21261;DHT22;10788;47.930;9.766;2022-10-22T07:22:28;11.80;99.90
21261;DHT22;10788;47.930;9.766;2022-10-22T07:24:53;11.90;99.90
21261;DHT22;10788;47.930;9.766;2022-10-22T07:27:19;11.90;99.90
21261;DHT22;10788;47.930;9.766;2022-10-22T07:29:45;11.80;99.90
21261;DHT22;10788;47.930;9.766;2022-10-22T07:32:10;12.00;99.90
21261;DHT22;10788;47.930;9.766;2022-10-22T07:34:36;11.90;99.90
21261;DHT22;10788;47.930;9.766;2022-10-22T07:37:02;12.10;99.90
21261;DHT22;10788;47.930;9.766;2022-10-22T07:39:27;12.20;99.90
21261;DHT22;10788;47.930;9.766;2022-10-22T07:41:53;12.10;99.90
21261;DHT22;10788;47.930;9.766;2022-10-22T07:44:19;12.10;99.90
21261;DHT22;10788;47.930;9.766;2022-10-22T07:46:44;12.10;99.90
21261;DHT22;10788;47.930;9.766;2022-10-22T07:49:10;12.20;99.90
21261;DHT22;10788;47.930;9.766;2022-10-22T07:51:35;12.20;99.90
21261;DHT22;10788;47.930;9.766;2022-10-22T07:54:01;12.30;99.90
21261;DHT22;10788;47.930;9.766;2022-10-22T07:56:27;12.30;99.90
21261;DHT22;10788;47.930;9.766;2022-10-22T07:58:52;12.40;99.90
21261;DHT22;10788;47.930;9.766;2022-10-22T08:01:18;12.40;99.90
21261;DHT22;10788;47.930;9.766;2022-10-22T08:03:43;12.60;99.90
21261;DHT22;10788;47.930;9.766;2022-10-22T08:06:12;12.40;99.90
21261;DHT22;10788;47.930;9.766;2022-10-22T08:08:38;12.50;99.90
21261;DHT22;10788;47.930;9.766;2022-10-22T08:11:03;12.50;99.90
21261;DHT22;10788;47.930;9.766;2022-10-22T08:13:30;12.60;99.90
21261;DHT22;10788;47.930;9.766;2022-10-22T08:15:57;12.70;99.90
21261;DHT22;10788;47.930;9.766;2022-10-22T08:18:23;12.70;99.90
21261;DHT22;10788;47.930;9.766;2022-10-22T08:20:50;12.70;99.90
21261;DHT22;10788;47.930;9.766;2022-10-22T08:23:16;12.80;99.90
21261;DHT22;10788;47.930;9.766;2022-10-22T08:25:41;12.70;99.90
21261;DHT22;10788;47.930;9.766;2022-10-22T08:28:07;12.80;99.90
21261;DHT22;10788;47.930;9.766;2022-10-22T08:30:32;12.80;99.90
21261;DHT22;10788;47.930;9.766;2022-10-22T08:32:58;12.80;99.90
21261;DHT22;10788;47.930;9.766;2022-10-22T08:35:24;12.80;99.90
21261;DHT22;10788;47.930;9.766;2022-10-22T08:37:49;12.80;99.90
21261;DHT22;10788;47.930;9.766;2022-10-22T08:40:31;12.90;99.90
21261;DHT22;10788;47.930;9.766;2022-10-22T08:43:04;12.90;99.90
21261;DHT22;10788;47.930;9.766;2022-10-22T08:51:00;13.10;99.90
21261;DHT22;10788;47.930;9.766;2022-10-22T08:53:48;13.20;99.90
21261;DHT22;10788;47.930;9.766;2022-10-22T08:56:16;13.40;99.90
21261;DHT22;10788;47.930;9.766;2022-10-22T08:59:10;13.60;99.90
21261;DHT22;10788;47.930;9.766;2022-10-22T09:01:42;13.70;99.90
21261;DHT22;10788;47.930;9.766;2022-10-22T09:04:35;13.80;99.90
21261;DHT22;10788;47.930;9.766;2022-10-22T09:07:02;14.10;99.90
21261;DHT22;10788;47.930;9.766;2022-10-22T09:09:33;14.40;99.90
21261;DHT22;10788;47.930;9.766;2022-10-22T09:12:03;14.60;99.90
21261;DHT22;10788;47.930;9.766;2022-10-22T09:14:29;14.80;99.90
21261;DHT22;10788;47.930;9.766;2022-10-22T09:25:25;15.70;99.90
21261;DHT22;10788;47.930;9.766;2022-10-22T09:27:51;15.80;99.90
21261;DHT22;10788;47.930;9.766;2022-10-22T09:30:21;16.00;99.90
21261;DHT22;10788;47.930;9.766;2022-10-22T09:38:13;16.30;99.90
21261;DHT22;10788;47.930;9.766;2022-10-22T09:40:48;16.50;99.90
21261;DHT22;10788;47.930;9.766;2022-10-22T09:43:14;16.50;99.90
21261;DHT22;10788;47.930;9.766;2022-10-22T09:45:41;16.60;99.90
21261;DHT22;10788;47.930;9.766;2022-10-22T09:48:15;16.80;99.90
21261;DHT22;10788;47.930;9.766;2022-10-22T09:50:46;16.90;99.90
21261;DHT22;10788;47.930;9.766;2022-10-22T09:53:21;17.00;99.90
21261;DHT22;10788;47.930;9.766;2022-10-22T09:55:55;17.00;99.90
21261;DHT22;10788;47.930;9.766;2022-10-22T09:58:21;17.00;99.90
21261;DHT22;10788;47.930;9.766;2022-10-22T10:00:59;17.00;99.90
21261;DHT22;10788;47.930;9.766;2022-10-22T10:03:30;17.20;99.90
21261;DHT22;10788;47.930;9.766;2022-10-22T10:05:58;17.20;99.90
21261;DHT22;10788;47.930;9.766;2022-10-22T10:08:25;17.20;99.90
21261;DHT22;10788;47.930;9.766;2022-10-22T10:11:05;17.30;99.90
21261;DHT22;10788;47.930;9.766;2022-10-22T10:25:05;17.60;99.90
21261;DHT22;10788;47.930;9.766;2022-10-22T10:27:48;17.30;99.90
21261;DHT22;10788;47.930;9.766;2022-10-22T10:30:20;17.00;99.90
21261;DHT22;10788;47.930;9.766;2022-10-22T10:33:02;17.00;99.90
21261;DHT22;10788;47.930;9.766;2022-10-22T10:40:42;16.90;99.90
21261;DHT22;10788;47.930;9.766;2022-10-22T10:49:53;16.60;99.90
21261;DHT22;10788;47.930;9.766;2022-10-22T11:00:20;16.90;99.90
21261;DHT22;10788;47.930;9.766;2022-10-22T11:08:27;17.00;99.90
21261;DHT22;10788;47.930;9.766;2022-10-22T11:13:49;17.10;99.90
21261;DHT22;10788;47.930;9.766;2022-10-22T11:16:22;17.20;99.90
21261;DHT22;10788;47.930;9.766;2022-10-22T11:18:59;17.20;99.90
21261;DHT22;10788;47.930;9.766;2022-10-22T11:24:25;17.30;99.90
21261;DHT22;10788;47.930;9.766;2022-10-22T11:27:04;17.40;99.90
21261;DHT22;10788;47.930;9.766;2022-10-22T11:29:36;17.50;99.90
21261;DHT22;10788;47.930;9.766;2022-10-22T11:32:06;17.40;99.90
21261;DHT22;10788;47.930;9.766;2022-10-22T11:34:47;17.30;99.90
21261;DHT22;10788;47.930;9.766;2022-10-22T11:37:15;17.30;99.90
21261;DHT22;10788;47.930;9.766;2022-10-22T11:40:05;17.40;99.90
21261;DHT22;10788;47.930;9.766;2022-10-22T11:42:40;17.50;99.90
21261;DHT22;10788;47.930;9.766;2022-10-22T11:53:17;17.60;99.90
21261;DHT22;10788;47.930;9.766;2022-10-22T11:55:46;17.60;99.90
21261;DHT22;10788;47.930;9.766;2022-10-22T12:08:44;17.50;99.90
21261;DHT22;10788;47.930;9.766;2022-10-22T12:16:43;17.60;99.90
21261;DHT22;10788;47.930;9.766;2022-10-22T12:21:37;17.80;99.90
21261;DHT22;10788;47.930;9.766;2022-10-22T12:24:05;17.90;99.90
21261;DHT22;10788;47.930;9.766;2022-10-22T12:26:32;17.90;99.90
21261;DHT22;10788;47.930;9.766;2022-10-22T12:29:04;17.90;99.90
21261;DHT22;10788;47.930;9.766;2022-10-22T12:31:35;18.00;99.90
21261;DHT22;10788;47.930;9.766;2022-10-22T12:34:01;18.00;99.90
21261;DHT22;10788;47.930;9.766;2022-10-22T12:36:33;17.90;99.90
21261;DHT22;10788;47.930;9.766;2022-10-22T12:39:08;17.90;99.90
21261;DHT22;10788;47.930;9.766;2022-10-22T12:41:36;17.90;99.90
21261;DHT22;10788;47.930;9.766;2022-10-22T12:44:04;17.80;99.90
21261;DHT22;10788;47.930;9.766;2022-10-22T12:46:32;17.80;99.90
21261;DHT22;10788;47.930;9.766;2022-10-22T12:49:03;17.80;99.90
21261;DHT22;10788;47.930;9.766;2022-10-22T12:51:30;17.80;99.90
21261;DHT22;10788;47.930;9.766;2022-10-22T12:54:00;17.70;99.90
21261;DHT22;10788;47.930;9.766;2022-10-22T12:56:30;17.60;99.90
21261;DHT22;10788;47.930;9.766;2022-10-22T13:01:23;17.70;99.90
21261;DHT22;10788;47.930;9.766;2022-10-22T13:04:01;17.70;99.90
21261;DHT22;10788;47.930;9.766;2022-10-22T13:06:28;17.80;99.90
21261;DHT22;10788;47.930;9.766;2022-10-22T13:09:16;17.90;99.90
21261;DHT22;10788;47.930;9.766;2022-10-22T13:11:55;18.00;99.90
21261;DHT22;10788;47.930;9.766;2022-10-22T13:14:34;18.10;99.90
21261;DHT22;10788;47.930;9.766;2022-10-22T13:17:14;18.20;99.90
21261;DHT22;10788;47.930;9.766;2022-10-22T13:19:47;18.20;99.90
21261;DHT22;10788;47.930;9.766;2022-10-22T13:22:32;18.20;99.90
21261;DHT22;10788;47.930;9.766;2022-10-22T13:27:43;18.10;99.90
21261;DHT22;10788;47.930;9.766;2022-10-22T13:30:21;18.10;99.90
21261;DHT22;10788;47.930;9.766;2022-10-22T13:32:58;18.00;99.90
21261;DHT22;10788;47.930;9.766;2022-10-22T13:35:27;18.00;99.90
21261;DHT22;10788;47.930;9.766;2022-10-22T13:37:53;18.00;99.90
21261;DHT22;10788;47.930;9.766;2022-10-22T13:40:19;17.80;99.90
21261;DHT22;10788;47.930;9.766;2022-10-22T13:42:45;17.80;99.90
21261;DHT22;10788;47.930;9.766;2022-10-22T13:45:11;17.90;99.90
21261;DHT22;10788;47.930;9.766;2022-10-22T13:47:38;17.90;99.90
21261;DHT22;10788;47.930;9.766;2022-10-22T13:50:16;17.90;99.90
21261;DHT22;10788;47.930;9.766;2022-10-22T13:55:22;18.00;99.90
21261;DHT22;10788;47.930;9.766;2022-10-22T13:58:00;18.00;99.90
21261;DHT22;10788;47.930;9.766;2022-10-22T14:00:28;18.10;99.90
21261;DHT22;10788;47.930;9.766;2022-10-22T14:02:56;18.10;99.90
21261;DHT22;10788;47.930;9.766;2022-10-22T14:05:22;18.00;99.90
21261;DHT22;10788;47.930;9.766;2022-10-22T14:07:48;18.00;99.90
21261;DHT22;10788;47.930;9.766;2022-10-22T14:12:41;17.90;99.90
21261;DHT22;10788;47.930;9.766;2022-10-22T14:15:11;17.90;99.90
21261;DHT22;10788;47.930;9.766;2022-10-22T14:17:38;17.90;99.90
21261;DHT22;10788;47.930;9.766;2022-10-22T14:20:04;17.90;99.90
21261;DHT22;10788;47.930;9.766;2022-10-22T14:22:30;17.80;99.90
21261;DHT22;10788;47.930;9.766;2022-10-22T14:24:56;17.80;99.90
21261;DHT22;10788;47.930;9.766;2022-10-22T14:27:22;17.80;99.90
21261;DHT22;10788;47.930;9.766;2022-10-22T14:29:47;17.80;99.90
21261;DHT22;10788;47.930;9.766;2022-10-22T14:32:15;17.70;99.90
21261;DHT22;10788;47.930;9.766;2022-10-22T14:34:42;17.60;99.90
21261;DHT22;10788;47.930;9.766;2022-10-22T14:37:16;17.60;99.90
21261;DHT22;10788;47.930;9.766;2022-10-22T14:39:42;17.60;99.90
21261;DHT22;10788;47.930;9.766;2022-10-22T14:42:10;17.50;99.90
21261;DHT22;10788;47.930;9.766;2022-10-22T14:44:35;17.50;99.90
21261;DHT22;10788;47.930;9.766;2022-10-22T14:47:01;17.50;99.90
21261;DHT22;10788;47.930;9.766;2022-10-22T14:49:27;17.40;99.90
21261;DHT22;10788;47.930;9.766;2022-10-22T14:51:52;17.40;99.90
21261;DHT22;10788;47.930;9.766;2022-10-22T14:54:18;17.40;99.90
21261;DHT22;10788;47.930;9.766;2022-10-22T14:56:43;17.30;99.90
21261;DHT22;10788;47.930;9.766;2022-10-22T14:59:09;17.20;99.90
21261;DHT22;10788;47.930;9.766;2022-10-22T15:01:34;17.20;99.90
21261;DHT22;10788;47.930;9.766;2022-10-22T15:04:00;17.20;99.90
21261;DHT22;10788;47.930;9.766;2022-10-22T15:06:26;17.10;99.90
21261;DHT22;10788;47.930;9.766;2022-10-22T15:08:51;17.10;99.90
21261;DHT22;10788;47.930;9.766;2022-10-22T15:11:17;17.10;99.90
21261;DHT22;10788;47.930;9.766;2022-10-22T15:13:42;17.10;99.90
21261;DHT22;10788;47.930;9.766;2022-10-22T15:16:15;17.00;99.90
21261;DHT22;10788;47.930;9.766;2022-10-22T15:18:40;17.00;99.90
21261;DHT22;10788;47.930;9.766;2022-10-22T15:21:17;17.00;99.90
21261;DHT22;10788;47.930;9.766;2022-10-22T15:23:43;17.00;99.90
21261;DHT22;10788;47.930;9.766;2022-10-22T15:26:10;17.00;99.90
21261;DHT22;10788;47.930;9.766;2022-10-22T15:28:37;17.00;99.90
21261;DHT22;10788;47.930;9.766;2022-10-22T15:31:04;16.90;99.90
21261;DHT22;10788;47.930;9.766;2022-10-22T15:33:29;16.90;99.90
21261;DHT22;10788;47.930;9.766;2022-10-22T15:35:56;16.90;99.90
21261;DHT22;10788;47.930;9.766;2022-10-22T15:38:26;16.90;99.90
21261;DHT22;10788;47.930;9.766;2022-10-22T15:41:13;16.90;99.90
21261;DHT22;10788;47.930;9.766;2022-10-22T15:43:38;16.80;99.90
21261;DHT22;10788;47.930;9.766;2022-10-22T15:46:24;16.70;99.90
21261;DHT22;10788;47.930;9.766;2022-10-22T15:48:52;16.70;99.90
21261;DHT22;10788;47.930;9.766;2022-10-22T15:51:18;16.70;99.90
21261;DHT22;10788;47.930;9.766;2022-10-22T15:53:56;16.60;99.90
21261;DHT22;10788;47.930;9.766;2022-10-22T15:56:23;16.50;99.90
21261;DHT22;10788;47.930;9.766;2022-10-22T15:58:59;16.50;99.90
21261;DHT22;10788;47.930;9.766;2022-10-22T16:01:27;16.50;99.90
21261;DHT22;10788;47.930;9.766;2022-10-22T16:03:53;16.40;99.90
21261;DHT22;10788;47.930;9.766;2022-10-22T16:06:45;16.40;99.90
21261;DHT22;10788;47.930;9.766;2022-10-22T16:09:13;16.30;99.90
21261;DHT22;10788;47.930;9.766;2022-10-22T16:11:40;16.30;99.90
21261;DHT22;10788;47.930;9.766;2022-10-22T16:14:06;16.20;99.90
21261;DHT22;10788;47.930;9.766;2022-10-22T16:16:34;16.20;99.90
21261;DHT22;10788;47.930;9.766;2022-10-22T16:19:00;16.20;99.90
21261;DHT22;10788;47.930;9.766;2022-10-22T16:21:25;16.10;99.90
21261;DHT22;10788;47.930;9.766;2022-10-22T16:23:51;16.00;99.90
21261;DHT22;10788;47.930;9.766;2022-10-22T16:26:18;15.90;99.90
21261;DHT22;10788;47.930;9.766;2022-10-22T16:28:45;15.90;99.90
21261;DHT22;10788;47.930;9.766;2022-10-22T16:31:13;15.80;99.90
21261;DHT22;10788;47.930;9.766;2022-10-22T16:33:40;15.80;99.90
21261;DHT22;10788;47.930;9.766;2022-10-22T16:36:07;15.70;99.90
21261;DHT22;10788;47.930;9.766;2022-10-22T16:38:33;15.70;99.90
21261;DHT22;10788;47.930;9.766;2022-10-22T16:41:42;15.60;99.90
21261;DHT22;10788;47.930;9.766;2022-10-22T16:44:06;15.50;99.90
21261;DHT22;10788;47.930;9.766;2022-10-22T16:46:33;15.50;99.90
21261;DHT22;10788;47.930;9.766;2022-10-22T16:49:01;15.40;99.90
21261;DHT22;10788;47.930;9.766;2022-10-22T16:51:27;15.20;99.90
21261;DHT22;10788;47.930;9.766;2022-10-22T16:53:54;15.10;99.90
21261;DHT22;10788;47.930;9.766;2022-10-22T16:56:21;14.90;99.90
21261;DHT22;10788;47.930;9.766;2022-10-22T16:58:49;14.90;99.90
21261;DHT22;10788;47.930;9.766;2022-10-22T17:01:16;14.80;99.90
21261;DHT22;10788;47.930;9.766;2022-10-22T17:03:42;14.80;99.90
21261;DHT22;10788;47.930;9.766;2022-10-22T17:06:08;14.70;99.90
21261;DHT22;10788;47.930;9.766;2022-10-22T17:08:35;14.60;99.90
21261;DHT22;10788;47.930;9.766;2022-10-22T17:11:09;14.60;99.90
21261;DHT22;10788;47.930;9.766;2022-10-22T17:13:35;14.50;99.90
21261;DHT22;10788;47.930;9.766;2022-10-22T17:16:05;14.50;99.90
21261;DHT22;10788;47.930;9.766;2022-10-22T17:18:32;14.50;99.90
21261;DHT22;10788;47.930;9.766;2022-10-22T17:20:58;14.50;99.90
21261;DHT22;10788;47.930;9.766;2022-10-22T17:23:24;14.40;99.90
21261;DHT22;10788;47.930;9.766;2022-10-22T17:26:04;14.30;99.90
21261;DHT22;10788;47.930;9.766;2022-10-22T17:28:34;14.10;99.90
21261;DHT22;10788;47.930;9.766;2022-10-22T17:31:09;14.00;99.90
21261;DHT22;10788;47.930;9.766;2022-10-22T17:33:35;13.90;99.90
21261;DHT22;10788;47.930;9.766;2022-10-22T17:36:01;13.90;99.90
21261;DHT22;10788;47.930;9.766;2022-10-22T17:38:27;13.80;99.90
21261;DHT22;10788;47.930;9.766;2022-10-22T17:40:53;13.80;99.90
21261;DHT22;10788;47.930;9.766;2022-10-22T17:43:18;13.80;99.90
21261;DHT22;10788;47.930;9.766;2022-10-22T17:45:44;13.70;99.90
21261;DHT22;10788;47.930;9.766;2022-10-22T17:48:10;13.70;99.90
21261;DHT22;10788;47.930;9.766;2022-10-22T17:50:40;13.60;99.90